Time;durP1;ratioP1;P1;durP2;ratioP2;P2;SDS_P1;SDS_P2;PMS_P1;PMS_P2;Temp;Humidity;BMP_temperature;BMP_pressure;BME280_temperature;BME280_humidity;BME280_pressure;Samples;Min_cycle;Max_cycle;Signal;HPM_P1;HPM_P2
2021/04/11 00:01:15;;;;;;;9.18;6.25;;;;;;;3.00;87.50;100780.78;5011788;28;20112;-57
2021/04/11 00:03:41;;;;;;;9.30;6.03;;;;;;;3.00;87.29;100785.97;4994590;28;20046;-56
2021/04/11 00:06:08;;;;;;;9.25;5.68;;;;;;;3.06;87.18;100779.72;5011889;28;20061;-57
2021/04/11 00:08:34;;;;;;;11.30;5.97;;;;;;;3.02;87.77;100787.63;5011973;28;20046;-57
2021/04/11 00:11:02;;;;;;;8.80;5.70;;;;;;;3.04;87.40;100797.94;5011852;28;20137;-57
2021/04/11 00:13:34;;;;;;;8.70;5.68;;;;;;;3.00;87.55;100788.56;5010759;28;20048;-57
2021/04/11 00:16:02;;;;;;;8.52;5.68;;;;;;;2.93;87.80;100785.34;5012864;28;20513;-57
2021/04/11 00:18:28;;;;;;;8.90;6.05;;;;;;;2.87;88.30;100786.38;5014417;28;20519;-57
2021/04/11 00:20:55;;;;;;;8.82;5.72;;;;;;;2.91;88.65;100788.91;5030439;28;20054;-57
2021/04/11 00:23:22;;;;;;;10.25;6.20;;;;;;;3.05;87.93;100784.06;5015220;28;20046;-58
2021/04/11 00:25:49;;;;;;;9.30;5.82;;;;;;;2.93;87.70;100789.69;5013929;28;20658;-56
2021/04/11 00:28:16;;;;;;;9.18;6.22;;;;;;;2.95;87.20;100790.50;5015161;28;20458;-55
2021/04/11 00:30:44;;;;;;;9.70;6.60;;;;;;;2.88;88.37;100772.50;5015171;28;20393;-55
2021/04/11 00:33:21;;;;;;;9.30;6.40;;;;;;;2.94;88.12;100786.19;5014152;28;20041;-53
2021/04/11 00:35:59;;;;;;;12.02;6.78;;;;;;;2.88;87.42;100775.09;5014390;28;20513;-54
2021/04/11 00:38:26;;;;;;;9.75;6.40;;;;;;;2.86;87.99;100784.72;5015485;28;20045;-53
2021/04/11 00:40:57;;;;;;;10.98;6.85;;;;;;;2.91;87.54;100787.13;5015441;28;20050;-54
2021/04/11 00:43:24;;;;;;;9.30;6.28;;;;;;;2.85;87.39;100788.19;4998307;28;20046;-55
2021/04/11 00:45:58;;;;;;;10.05;6.22;;;;;;;2.94;87.80;100778.41;5013729;28;20058;-55
2021/04/11 00:48:26;;;;;;;9.68;6.20;;;;;;;2.92;87.26;100785.38;5013881;28;20054;-54
2021/04/11 00:51:09;;;;;;;10.90;7.00;;;;;;;2.85;87.62;100788.19;5015217;28;20524;-55
2021/04/11 00:53:36;;;;;;;9.88;6.82;;;;;;;2.93;87.62;100795.75;5014635;28;20053;-55
2021/04/11 00:56:04;;;;;;;9.30;6.13;;;;;;;2.98;87.54;100795.56;5015010;28;20041;-54
2021/04/11 00:58:30;;;;;;;9.48;6.05;;;;;;;3.00;87.43;100788.56;5013936;28;20046;-52
2021/04/11 01:00:57;;;;;;;8.80;6.13;;;;;;;2.95;87.35;100790.50;5013883;28;20053;-54
2021/04/11 01:03:30;;;;;;;9.50;5.90;;;;;;;2.92;87.12;100790.56;5013882;28;20066;-54
2021/04/11 01:05:56;;;;;;;10.25;6.68;;;;;;;2.91;87.35;100783.72;5014952;28;20060;-54
2021/04/11 01:08:25;;;;;;;10.68;6.43;;;;;;;2.87;87.28;100776.00;5013475;28;20100;-53
2021/04/11 01:11:12;;;;;;;8.60;6.07;;;;;;;2.80;87.07;100779.72;5013650;28;20054;-53
2021/04/11 01:13:43;;;;;;;9.18;5.97;;;;;;;2.80;87.01;100781.47;4997309;28;20038;-54
2021/04/11 01:16:10;;;;;;;9.77;6.82;;;;;;;2.79;87.39;100787.56;4997370;28;20054;-54
2021/04/11 01:18:36;;;;;;;10.35;6.57;;;;;;;2.80;87.15;100782.31;5013523;28;20053;-55
2021/04/11 01:21:11;;;;;;;10.00;7.20;;;;;;;2.78;87.37;100768.53;5013572;28;20050;-53
2021/04/11 01:23:50;;;;;;;9.93;6.82;;;;;;;2.74;87.02;100769.53;5013573;28;20054;-55
2021/04/11 01:26:17;;;;;;;10.45;7.05;;;;;;;2.69;87.36;100767.09;5012746;28;20136;-54
2021/04/11 01:28:44;;;;;;;10.05;7.07;;;;;;;2.74;87.96;100764.34;5012960;28;20046;-55
2021/04/11 01:31:12;;;;;;;9.52;7.13;;;;;;;2.79;86.70;100769.38;5012816;28;20070;-55
2021/04/11 01:33:42;;;;;;;10.13;6.82;;;;;;;2.78;86.83;100768.53;5012897;28;20056;-53
2021/04/11 01:36:11;;;;;;;10.05;7.25;;;;;;;2.79;87.27;100767.63;5013107;28;20428;-55
2021/04/11 01:38:39;;;;;;;12.15;7.35;;;;;;;2.72;87.15;100776.53;5013339;28;20049;-54
2021/04/11 01:41:30;;;;;;;10.20;7.13;;;;;;;2.72;86.41;100778.28;5029558;28;20060;-55
2021/04/11 01:43:57;;;;;;;11.10;7.78;;;;;;;2.68;87.29;100774.94;5008705;28;20250;-56
2021/04/11 01:46:25;;;;;;;10.73;7.47;;;;;;;2.59;87.28;100772.63;4996546;28;20133;-54
2021/04/11 01:48:53;;;;;;;10.10;6.80;;;;;;;2.67;86.80;100771.50;5012840;28;20045;-53
2021/04/11 01:51:23;;;;;;;11.55;7.90;;;;;;;2.74;87.27;100771.28;5012798;28;20053;-54
2021/04/11 01:53:50;;;;;;;11.30;7.53;;;;;;;2.77;86.74;100785.00;5012973;28;20068;-55
2021/04/11 01:56:17;;;;;;;10.23;6.65;;;;;;;2.64;86.31;100781.97;5012493;28;20132;-54
2021/04/11 01:58:44;;;;;;;9.52;6.45;;;;;;;2.61;86.33;100773.44;5012713;28;20134;-56
2021/04/11 02:01:23;;;;;;;12.25;6.80;;;;;;;2.66;87.22;100774.97;5013663;28;20053;-56
2021/04/11 02:03:54;;;;;;;9.05;6.38;;;;;;;2.65;86.34;100785.44;5013364;28;20512;-54
2021/04/11 02:06:22;;;;;;;9.70;6.68;;;;;;;2.58;86.86;100787.38;5011689;28;20532;-55
2021/04/11 02:08:51;;;;;;;9.15;6.50;;;;;;;2.69;86.49;100792.22;4996015;28;20038;-55
2021/04/11 02:11:17;;;;;;;9.60;6.53;;;;;;;2.66;86.66;100781.94;4995937;28;20049;-55
2021/04/11 02:13:44;;;;;;;9.07;5.97;;;;;;;2.72;86.74;100791.28;5012524;28;20057;-54
2021/04/11 02:16:14;;;;;;;10.15;5.88;;;;;;;2.61;87.18;100791.63;4995843;28;20058;-56
2021/04/11 02:18:41;;;;;;;9.40;5.93;;;;;;;2.56;87.14;100801.31;4995637;28;20516;-53
2021/04/11 02:21:13;;;;;;;9.05;6.20;;;;;;;2.59;86.97;100785.63;5010522;28;20046;-55
2021/04/11 02:23:40;;;;;;;9.20;6.03;;;;;;;2.57;87.17;100792.63;5012861;28;20053;-53
2021/04/11 02:26:10;;;;;;;8.40;5.38;;;;;;;2.53;87.10;100797.06;5012289;28;20050;-54
2021/04/11 02:28:37;;;;;;;8.75;5.75;;;;;;;2.50;87.45;100790.22;5012170;28;20041;-55
2021/04/11 02:31:17;;;;;;;8.45;5.38;;;;;;;2.65;86.61;100790.63;5012102;28;20444;-53
2021/04/11 02:33:54;;;;;;;9.30;5.63;;;;;;;2.66;86.68;100792.31;5012266;28;20400;-55
2021/04/11 02:36:22;;;;;;;9.18;5.40;;;;;;;2.72;87.21;100788.66;5006806;28;20613;-56
2021/04/11 02:38:52;;;;;;;8.02;5.13;;;;;;;2.64;87.25;100786.31;4992052;28;20417;-56
2021/04/11 02:41:20;;;;;;;9.10;5.90;;;;;;;2.56;87.23;100793.50;4998860;28;20053;-56
2021/04/11 02:43:46;;;;;;;8.32;5.38;;;;;;;2.57;87.78;100780.47;5010999;28;20049;-55
2021/04/11 02:46:13;;;;;;;8.38;5.38;;;;;;;2.73;87.00;100777.34;5011093;28;20513;-54
2021/04/11 02:48:40;;;;;;;9.90;5.47;;;;;;;2.62;87.31;100785.50;5011759;28;20048;-54
2021/04/11 02:51:06;;;;;;;8.85;5.43;;;;;;;2.65;86.98;100791.47;5011910;28;20045;-53
2021/04/11 02:53:34;;;;;;;8.32;5.70;;;;;;;2.57;87.61;100790.88;5010839;28;20057;-53
2021/04/11 02:56:01;;;;;;;10.07;6.80;;;;;;;2.58;87.40;100789.97;5011449;28;20049;-53
2021/04/11 02:58:28;;;;;;;9.15;6.25;;;;;;;2.59;87.92;100788.22;5011608;28;20050;-54
2021/04/11 03:01:02;;;;;;;8.30;5.60;;;;;;;2.60;87.79;100800.31;5011570;28;20053;-54
2021/04/11 03:03:29;;;;;;;9.93;6.18;;;;;;;2.61;87.61;100799.41;5011314;28;20544;-54
2021/04/11 03:05:56;;;;;;;8.32;5.40;;;;;;;2.68;87.71;100809.53;5027855;28;20064;-54
2021/04/11 03:08:27;;;;;;;8.98;5.72;;;;;;;2.68;87.54;100819.06;5009880;28;20046;-50
2021/04/11 03:11:01;;;;;;;10.63;5.82;;;;;;;2.75;87.71;100817.13;5009672;28;20038;-55
2021/04/11 03:13:28;;;;;;;8.77;5.20;;;;;;;2.71;87.72;100818.97;5012599;28;20053;-54
2021/04/11 03:15:56;;;;;;;8.02;5.15;;;;;;;2.74;87.84;100818.91;5011191;28;20472;-55
2021/04/11 03:18:23;;;;;;;8.07;4.88;;;;;;;2.82;87.45;100834.22;5011214;28;20469;-53
2021/04/11 03:20:50;;;;;;;7.47;5.28;;;;;;;2.79;87.25;100836.91;5010699;28;20412;-53
2021/04/11 03:23:18;;;;;;;8.75;4.93;;;;;;;2.71;87.48;100837.16;5011156;28;20061;-55
2021/04/11 03:25:44;;;;;;;6.40;4.05;;;;;;;2.69;87.32;100846.75;5010352;28;20056;-53
2021/04/11 03:28:17;;;;;;;7.65;4.75;;;;;;;2.61;87.64;100847.00;5011123;28;20441;-54
2021/04/11 03:30:53;;;;;;;6.53;4.30;;;;;;;2.72;87.55;100851.84;5011159;28;20400;-55
2021/04/11 03:33:20;;;;;;;7.32;3.83;;;;;;;2.72;87.62;100835.41;5011233;28;20054;-54
2021/04/11 03:35:48;;;;;;;6.13;3.50;;;;;;;2.73;87.66;100827.56;5010970;28;20065;-57
2021/04/11 03:38:21;;;;;;;6.22;3.72;;;;;;;2.70;87.40;100840.66;5010908;28;20052;-56
2021/04/11 03:40:51;;;;;;;5.75;3.25;;;;;;;2.71;87.74;100839.75;5010450;28;20458;-56
2021/04/11 03:43:23;;;;;;;4.93;2.90;;;;;;;2.78;86.98;100843.88;5009763;28;20066;-56
2021/04/11 03:45:51;;;;;;;5.78;3.28;;;;;;;2.76;87.36;100845.66;4992234;28;20045;-56
2021/04/11 03:48:29;;;;;;;5.95;3.10;;;;;;;2.73;86.97;100844.88;4992464;28;20042;-56
2021/04/11 03:51:08;;;;;;;5.38;3.10;;;;;;;2.74;86.95;100856.97;5008290;28;20054;-57
2021/04/11 03:53:43;;;;;;;4.85;3.10;;;;;;;2.69;87.63;100864.94;5008824;28;20399;-56
2021/04/11 03:56:12;;;;;;;6.38;3.20;;;;;;;2.77;87.71;100872.47;5008169;28;20061;-56
2021/04/11 03:58:47;;;;;;;4.88;2.75;;;;;;;2.81;86.89;100864.53;5008752;28;20500;-56
2021/04/11 04:01:17;;;;;;;4.53;2.67;;;;;;;2.78;87.06;100864.66;5009242;28;20057;-57
2021/04/11 04:03:45;;;;;;;3.88;2.40;;;;;;;2.70;86.91;100862.28;5010192;28;20033;-57
2021/04/11 04:06:24;;;;;;;3.72;2.50;;;;;;;2.77;87.27;100857.75;5007711;28;20050;-57
2021/04/11 04:08:50;;;;;;;3.97;2.40;;;;;;;2.83;87.27;100857.53;5009193;28;20046;-58
2021/04/11 04:11:47;;;;;;;5.93;2.88;;;;;;;2.76;87.23;100863.84;5007570;28;20390;-57
2021/04/11 04:14:22;;;;;;;4.05;2.55;;;;;;;2.82;86.57;100878.38;5008550;28;20045;-56
2021/04/11 04:17:00;;;;;;;3.78;2.38;;;;;;;2.81;86.39;100877.53;5009724;28;20050;-56
2021/04/11 04:19:34;;;;;;;4.63;2.53;;;;;;;2.80;86.62;100881.00;5009085;28;20148;-57
2021/04/11 04:22:38;;;;;;;3.22;2.35;;;;;;;2.81;86.40;100874.94;5010096;28;20046;-57
2021/04/11 04:25:19;;;;;;;4.03;2.72;;;;;;;2.81;86.57;100863.66;5006777;28;20409;-57
2021/04/11 04:27:52;;;;;;;4.63;2.78;;;;;;;2.75;86.00;100869.91;5002450;28;20422;-57
2021/04/11 04:30:56;;;;;;;5.35;2.67;;;;;;;2.70;87.26;100871.84;5007559;28;20042;-57
2021/04/11 04:33:32;;;;;;;4.65;2.78;;;;;;;2.69;87.44;100864.94;5005499;28;20062;-56
2021/04/11 04:36:03;;;;;;;4.25;2.45;;;;;;;2.70;87.42;100871.84;5004598;28;20054;-57
2021/04/11 04:38:49;;;;;;;4.05;2.67;;;;;;;2.70;86.96;100875.28;5007328;28;20038;-57
2021/04/11 04:41:26;;;;;;;4.57;2.70;;;;;;;2.67;86.82;100871.91;5009158;28;20061;-57
2021/04/11 04:44:03;;;;;;;4.35;2.63;;;;;;;2.74;86.77;100885.56;5009342;28;20552;-57
2021/04/11 04:46:45;;;;;;;4.78;2.72;;;;;;;2.77;87.05;100886.31;5007793;28;20050;-57
2021/04/11 04:49:20;;;;;;;3.90;2.35;;;;;;;2.76;87.53;100887.22;5009184;28;20038;-57
2021/04/11 04:51:51;;;;;;;4.07;2.70;;;;;;;2.71;87.16;100896.88;5008262;28;20057;-57
2021/04/11 04:54:38;;;;;;;3.95;2.50;;;;;;;2.71;87.19;100899.47;5008610;28;20068;-56
2021/04/11 04:57:18;;;;;;;5.32;2.58;;;;;;;2.75;87.02;100908.88;5004063;28;20397;-57
2021/04/11 04:59:54;;;;;;;5.30;2.75;;;;;;;2.82;87.36;100900.00;5007458;28;20225;-57
2021/04/11 05:02:23;;;;;;;5.28;3.20;;;;;;;2.78;87.08;100905.34;5009392;28;20141;-57
2021/04/11 05:04:53;;;;;;;4.90;3.17;;;;;;;2.84;87.24;100899.97;4995590;28;20140;-57
2021/04/11 05:07:22;;;;;;;4.45;2.80;;;;;;;2.81;87.57;100910.44;5011692;28;20053;-57
2021/04/11 05:09:52;;;;;;;5.00;2.95;;;;;;;2.80;87.46;100904.41;5012221;28;20048;-57
2021/04/11 05:12:32;;;;;;;4.88;2.97;;;;;;;2.77;87.63;100903.63;5012059;28;20046;-56
2021/04/11 05:15:03;;;;;;;6.55;3.00;;;;;;;2.82;87.54;100917.34;5011316;28;20057;-56
2021/04/11 05:17:52;;;;;;;5.60;2.75;;;;;;;2.83;87.32;100916.44;5008554;28;20525;-57
2021/04/11 05:20:21;;;;;;;5.50;3.10;;;;;;;2.86;87.02;100925.00;5006808;28;20049;-55
2021/04/11 05:23:05;;;;;;;5.53;2.95;;;;;;;2.80;86.73;100938.16;4994247;28;20084;-57
2021/04/11 05:25:40;;;;;;;5.57;2.80;;;;;;;2.76;87.38;100939.16;5011180;28;20042;-56
2021/04/11 05:28:11;;;;;;;4.95;2.78;;;;;;;2.86;87.27;100943.19;5011527;28;20044;-57
2021/04/11 05:31:04;;;;;;;4.75;2.97;;;;;;;2.88;87.47;100943.97;5012655;28;20042;-57
2021/04/11 05:33:34;;;;;;;4.90;2.60;;;;;;;2.88;86.84;100943.97;4997227;28;20058;-58
2021/04/11 05:36:31;;;;;;;4.65;2.97;;;;;;;2.87;86.83;100957.84;5015760;28;20576;-56
2021/04/11 05:39:23;;;;;;;4.55;2.53;;;;;;;2.91;86.14;100960.38;5011556;28;20374;-56
2021/04/11 05:42:24;;;;;;;4.00;2.33;;;;;;;2.89;86.27;100973.41;5005537;28;20053;-56
2021/04/11 05:44:59;;;;;;;4.32;2.38;;;;;;;2.91;86.30;100973.38;5008037;28;20383;-57
2021/04/11 05:47:32;;;;;;;4.75;2.60;;;;;;;2.98;86.74;100974.88;5004714;28;20061;-57
2021/04/11 05:50:11;;;;;;;4.72;2.60;;;;;;;2.95;86.51;100974.97;5010088;28;20049;-57
2021/04/11 05:52:48;;;;;;;5.47;2.30;;;;;;;2.96;86.13;100974.91;5012197;28;20054;-57
2021/04/11 05:55:17;;;;;;;4.22;2.22;;;;;;;2.94;85.33;100979.28;5011481;28;20792;-56
2021/04/11 05:57:51;;;;;;;6.13;2.50;;;;;;;2.94;85.17;100994.03;4994741;28;20042;-54
2021/04/11 06:00:35;;;;;;;3.90;2.30;;;;;;;2.99;85.58;100986.97;4992266;28;20061;-56
2021/04/11 06:03:06;;;;;;;3.08;1.90;;;;;;;2.95;85.36;100998.34;5010339;28;20354;-56
2021/04/11 06:06:19;;;;;;;2.67;1.70;;;;;;;2.96;84.97;101000.03;5010979;28;20046;-56
2021/04/11 06:09:03;;;;;;;;;;;;;;;2.92;84.40;100993.22;4952935;28;20529;-54
2021/04/11 06:11:57;;;;;;;3.38;1.77;;;;;;;2.87;85.82;101006.38;4950568;28;19922;-56
2021/04/11 06:14:32;;;;;;;2.40;1.73;;;;;;;2.92;85.32;101009.69;4993407;28;20061;-56
2021/04/11 06:16:58;;;;;;;2.53;1.80;;;;;;;3.00;85.19;101014.63;5010824;28;20565;-56
2021/04/11 06:19:25;;;;;;;4.00;1.80;;;;;;;3.02;84.74;101015.44;5010190;28;20485;-56
2021/04/11 06:21:51;;;;;;;3.30;1.60;;;;;;;3.01;84.04;101026.72;4978642;28;20133;-57
2021/04/11 06:24:39;;;;;;;2.53;1.55;;;;;;;3.10;84.57;101030.81;5010509;28;20046;-56
2021/04/11 06:27:08;;;;;;;3.15;1.50;;;;;;;3.15;84.21;101040.16;5010768;28;20050;-57
2021/04/11 06:30:01;;;;;;;2.95;1.60;;;;;;;3.14;84.71;101050.59;5009344;28;20052;-55
2021/04/11 06:32:32;;;;;;;3.10;1.70;;;;;;;3.19;82.87;101046.09;5004999;28;20050;-56
2021/04/11 06:35:02;;;;;;;1.80;1.40;;;;;;;3.30;83.26;101054.44;5012021;28;20077;-56
2021/04/11 06:37:29;;;;;;;2.53;1.52;;;;;;;3.34;83.73;101049.97;5013142;28;20045;-56
2021/04/11 06:39:56;;;;;;;2.28;1.60;;;;;;;3.35;84.04;101052.53;5012073;28;20049;-56
2021/04/11 06:42:58;;;;;;;2.90;1.42;;;;;;;3.32;83.20;101057.81;5011892;28;20050;-56
2021/04/11 06:45:41;;;;;;;2.70;1.40;;;;;;;3.31;82.35;101050.06;5000912;28;20112;-55
2021/04/11 06:48:35;;;;;;;1.67;1.20;;;;;;;3.33;82.00;101045.69;5011995;28;20065;-55
2021/04/11 06:51:35;;;;;;;2.45;1.40;;;;;;;3.38;82.83;101047.25;5013115;28;20057;-56
2021/04/11 06:54:21;;;;;;;1.73;1.35;;;;;;;3.36;80.45;101054.22;5012962;28;20484;-56
2021/04/11 06:57:02;;;;;;;2.13;1.30;;;;;;;3.43;82.06;101061.84;5011408;28;20068;-57
2021/04/11 07:00:06;;;;;;;3.60;1.50;;;;;;;3.46;80.55;101067.78;5012374;28;20125;-57
2021/04/11 07:03:03;;;;;;;3.72;1.40;;;;;;;3.44;81.33;101056.59;5012470;28;20096;-57
2021/04/11 07:05:38;;;;;;;2.03;1.50;;;;;;;3.51;82.11;101060.69;5012333;28;20498;-57
2021/04/11 07:08:25;;;;;;;3.20;1.50;;;;;;;3.55;81.12;101066.66;5012798;28;20455;-56
2021/04/11 07:11:16;;;;;;;3.40;1.48;;;;;;;3.49;81.34;101075.50;5011466;28;20073;-57
2021/04/11 07:14:16;;;;;;;1.45;1.17;;;;;;;3.59;81.10;101077.81;5011411;28;20054;-58
2021/04/11 07:17:03;;;;;;;2.90;1.40;;;;;;;3.60;80.62;101087.28;5012715;28;20065;-58
2021/04/11 07:19:56;;;;;;;3.72;1.60;;;;;;;3.66;81.53;101090.56;5011179;28;20046;-55
2021/04/11 07:22:42;;;;;;;3.70;1.60;;;;;;;3.79;80.69;101072.81;5011427;28;20054;-57
2021/04/11 07:25:46;;;;;;;2.15;1.35;;;;;;;3.72;80.11;101082.56;5026977;28;20112;-58
2021/04/11 07:28:33;;;;;;;2.90;1.23;;;;;;;3.74;79.36;101092.91;5012253;28;20702;-56
2021/04/11 07:31:19;;;;;;;5.25;1.50;;;;;;;3.74;79.69;101087.72;5012494;28;20168;-56
2021/04/11 07:33:55;;;;;;;2.95;1.35;;;;;;;3.87;80.19;101093.34;5011158;28;20135;-59
2021/04/11 07:36:45;;;;;;;3.83;1.40;;;;;;;3.85;78.62;101092.56;5027291;28;20045;-54
2021/04/11 07:39:32;;;;;;;4.10;1.48;;;;;;;4.03;78.59;101094.53;5011225;28;20046;-56
2021/04/11 07:42:24;;;;;;;3.63;1.42;;;;;;;4.05;78.96;101107.53;5011270;28;20051;-54
2021/04/11 07:45:09;;;;;;;3.28;1.52;;;;;;;4.04;78.24;101109.25;5012203;28;20042;-59
2021/04/11 07:47:49;;;;;;;2.92;1.33;;;;;;;4.06;77.47;101119.63;5012281;28;20076;-56
2021/04/11 07:50:28;;;;;;;4.25;1.60;;;;;;;4.03;77.17;101130.13;5011000;28;20065;-59
2021/04/11 07:53:03;;;;;;;2.50;1.42;;;;;;;4.07;77.42;101135.19;5011004;28;20056;-58
2021/04/11 07:55:39;;;;;;;5.50;1.48;;;;;;;4.01;78.23;101131.94;5010746;28;20049;-58
2021/04/11 07:58:13;;;;;;;2.40;1.40;;;;;;;4.04;78.74;101130.06;5012140;28;20050;-53
2021/04/11 08:00:43;;;;;;;5.47;1.70;;;;;;;4.03;78.10;101143.16;5010878;28;20500;-55
2021/04/11 08:03:09;;;;;;;3.28;1.50;;;;;;;4.09;79.22;101153.38;5012036;28;20033;-59
2021/04/11 08:05:44;;;;;;;4.00;1.50;;;;;;;4.05;78.92;101146.56;5011875;28;20056;-56
2021/04/11 08:08:27;;;;;;;6.07;2.10;;;;;;;4.03;78.37;101137.94;5011922;28;20034;-58
2021/04/11 08:11:32;;;;;;;2.42;1.60;;;;;;;4.07;78.93;101150.78;5010868;28;20054;-55
2021/04/11 08:13:58;;;;;;;3.17;1.65;;;;;;;4.19;78.12;101146.94;5003815;28;20060;-55
2021/04/11 08:16:28;;;;;;;2.72;1.50;;;;;;;4.17;78.38;101146.16;5011955;28;20058;-58
2021/04/11 08:19:11;;;;;;;3.90;1.55;;;;;;;4.22;77.16;101153.81;5011818;28;20056;-59
2021/04/11 08:21:54;;;;;;;6.72;1.77;;;;;;;4.21;78.30;101146.88;5010623;28;20404;-59
2021/04/11 08:24:26;;;;;;;3.85;1.60;;;;;;;4.26;77.30;101159.75;5010556;28;20046;-59
2021/04/11 08:27:10;;;;;;;5.78;1.92;;;;;;;4.13;76.44;101165.38;5011949;28;20072;-59
2021/04/11 08:30:00;;;;;;;5.68;1.73;;;;;;;4.15;77.19;101173.13;5011687;28;20038;-56
2021/04/11 08:33:03;;;;;;;4.22;1.67;;;;;;;4.26;77.09;101185.81;5011751;28;20045;-56
2021/04/11 08:36:09;;;;;;;4.32;1.77;;;;;;;4.13;76.48;101188.81;5010457;28;20527;-58
2021/04/11 08:38:50;;;;;;;6.55;1.90;;;;;;;4.28;77.14;101191.78;5015125;28;20054;-58
2021/04/11 08:41:49;;;;;;;8.48;2.05;;;;;;;4.30;76.92;101193.44;5011334;28;20267;-59
2021/04/11 08:44:33;;;;;;;3.13;1.40;;;;;;;4.39;77.42;101205.31;5006274;28;20429;-58
2021/04/11 08:47:24;;;;;;;6.15;1.85;;;;;;;4.37;76.88;101194.94;5011746;28;20627;-56
2021/04/11 08:49:59;;;;;;;3.28;1.50;;;;;;;4.41;75.27;101193.09;5012617;28;20038;-56
2021/04/11 08:52:40;;;;;;;3.75;1.80;;;;;;;4.48;76.88;101202.38;5012520;28;20052;-59
2021/04/11 08:55:15;;;;;;;6.10;1.98;;;;;;;4.53;75.72;101202.25;5012247;28;20065;-56
2021/04/11 08:57:44;;;;;;;5.32;1.85;;;;;;;4.64;75.76;101199.28;5012507;28;20053;-59
2021/04/11 09:00:27;;;;;;;4.70;1.90;;;;;;;4.84;76.16;101207.25;5014495;28;20403;-58
2021/04/11 09:03:11;;;;;;;5.35;1.70;;;;;;;5.04;75.40;101221.31;5013105;28;20473;-58
2021/04/11 09:05:51;;;;;;;6.45;1.60;;;;;;;5.18;73.82;101219.06;5013342;28;20550;-58
2021/04/11 09:08:29;;;;;;;4.55;1.63;;;;;;;5.21;71.95;101208.53;5014503;28;20060;-58
2021/04/11 09:11:20;;;;;;;5.68;1.70;;;;;;;5.38;72.68;101217.47;5030042;28;20436;-53
2021/04/11 09:13:59;;;;;;;4.57;1.60;;;;;;;5.36;71.98;101224.53;5014395;28;20079;-54
2021/04/11 09:16:50;;;;;;;4.93;1.90;;;;;;;5.33;72.97;101224.63;5014390;28;20053;-55
2021/04/11 09:19:26;;;;;;;5.47;1.55;;;;;;;5.19;71.53;101230.34;5013303;28;20046;-56
2021/04/11 09:22:15;;;;;;;5.97;1.70;;;;;;;5.08;71.93;101236.81;5013407;28;20413;-56
2021/04/11 09:25:09;;;;;;;3.92;1.52;;;;;;;5.29;73.42;101241.28;5013566;28;20046;-54
2021/04/11 09:27:54;;;;;;;3.53;1.50;;;;;;;5.32;72.29;101241.19;5029591;28;20057;-59
2021/04/11 09:30:20;;;;;;;2.60;1.30;;;;;;;5.33;72.29;101237.66;5014338;28;20044;-55
2021/04/11 09:32:50;;;;;;;3.88;1.50;;;;;;;5.55;72.79;101246.41;5014189;28;20053;-55
2021/04/11 09:36:01;;;;;;;3.65;1.45;;;;;;;5.57;71.85;101244.56;5013854;28;20049;-56
2021/04/11 09:39:05;;;;;;;6.20;1.50;;;;;;;5.66;69.84;101243.38;4937445;29;20062;-56
2021/04/11 09:41:52;;;;;;;3.28;1.13;;;;;;;5.71;71.24;101253.63;4981011;28;20397;-59
2021/04/11 09:44:40;;;;;;;4.20;1.20;;;;;;;5.82;70.22;101264.53;5012830;28;20081;-59
2021/04/11 09:47:35;;;;;;;4.40;1.27;;;;;;;6.07;69.67;101256.59;5029050;28;20501;-55
2021/04/11 09:50:23;;;;;;;4.20;1.27;;;;;;;5.99;70.45;101256.06;4992338;28;20053;-58
2021/04/11 09:52:56;;;;;;;2.65;1.20;;;;;;;6.16;69.06;101262.38;5014125;28;20397;-59
2021/04/11 09:56:00;;;;;;;4.45;1.30;;;;;;;6.21;69.40;101284.78;5014093;28;20049;-59
2021/04/11 09:58:41;;;;;;;4.55;1.33;;;;;;;6.33;68.81;101261.72;4995160;28;20058;-59
2021/04/11 10:01:16;;;;;;;2.65;1.27;;;;;;;6.29;65.52;101249.69;5014030;28;20062;-59
2021/04/11 10:04:20;;;;;;;4.25;1.05;;;;;;;6.19;66.04;101254.41;5029099;28;20054;-58
2021/04/11 10:07:31;;;;;;;4.68;1.23;;;;;;;6.32;65.49;101255.63;5003172;28;20066;-58
2021/04/11 10:10:11;;;;;;;3.20;1.10;;;;;;;6.46;66.92;101265.50;4998768;28;20054;-58
2021/04/11 10:12:58;;;;;;;4.70;1.00;;;;;;;6.54;66.99;101267.81;5013430;28;20046;-58
2021/04/11 10:15:57;;;;;;;3.60;1.27;;;;;;;6.58;65.31;101267.59;5013545;28;20049;-58
2021/04/11 10:18:55;;;;;;;1.88;0.98;;;;;;;6.59;65.42;101284.16;4996033;28;20156;-59
2021/04/11 10:21:32;;;;;;;4.05;1.02;;;;;;;6.64;65.35;101273.50;5013239;28;20068;-59
2021/04/11 10:24:16;;;;;;;3.28;0.90;;;;;;;6.72;63.65;101281.88;5013620;28;20060;-56
2021/04/11 10:26:57;;;;;;;2.80;1.00;;;;;;;6.69;65.25;101289.84;5013595;28;20053;-56
2021/04/11 10:29:29;;;;;;;1.70;0.90;;;;;;;6.58;68.06;101298.13;5013367;28;20057;-56
2021/04/11 10:32:18;;;;;;;1.67;0.90;;;;;;;6.42;68.33;101298.75;4995826;28;20379;-55
2021/04/11 10:34:49;;;;;;;1.83;0.80;;;;;;;6.33;70.60;101306.13;5012380;28;20077;-56
2021/04/11 10:37:22;;;;;;;5.60;1.70;;;;;;;6.30;71.11;101314.06;5012139;28;20432;-56
2021/04/11 10:40:05;;;;;;;;;;;;;;;6.34;72.33;101303.44;5013471;28;20052;-58
2021/04/11 10:42:37;;;;;;;4.80;1.92;;;;;;;6.38;72.05;101315.47;5011946;28;20388;-56
2021/04/11 10:45:16;;;;;;;5.57;1.60;;;;;;;6.28;68.49;101311.50;5012094;28;20057;-56
2021/04/11 10:47:54;;;;;;;4.15;0.95;;;;;;;6.40;71.24;101325.88;5012900;28;20058;-59
2021/04/11 10:50:33;;;;;;;4.18;1.60;;;;;;;6.38;69.24;101333.75;5027845;28;20050;-59
2021/04/11 10:53:29;;;;;;;3.38;1.20;;;;;;;6.57;71.22;101333.00;5011760;28;20054;-59
2021/04/11 10:56:21;;;;;;;4.25;1.33;;;;;;;6.59;70.96;101318.97;5011698;28;20125;-60
2021/04/11 10:59:05;;;;;;;4.32;1.30;;;;;;;6.55;70.60;101320.00;5011383;28;20063;-59
2021/04/11 11:01:52;;;;;;;3.58;1.08;;;;;;;6.58;70.38;101340.78;5012186;28;20508;-59
2021/04/11 11:04:49;;;;;;;4.25;1.23;;;;;;;6.66;69.84;101347.47;5011192;28;20057;-59
2021/04/11 11:07:38;;;;;;;4.65;1.60;;;;;;;6.74;69.99;101356.69;5012256;28;20400;-59
2021/04/11 11:10:18;;;;;;;4.35;1.20;;;;;;;6.90;69.82;101345.63;5010619;28;20046;-58
2021/04/11 11:13:19;;;;;;;4.28;1.20;;;;;;;6.87;67.42;101345.75;5012228;28;20050;-58
2021/04/11 11:16:01;;;;;;;3.90;1.30;;;;;;;6.67;66.99;101349.19;5012529;28;20355;-58
2021/04/11 11:18:42;;;;;;;3.85;1.15;;;;;;;6.55;67.30;101345.31;5012307;28;20387;-58
2021/04/11 11:21:17;;;;;;;6.15;1.40;;;;;;;6.59;68.94;101350.34;5011249;28;20509;-59
2021/04/11 11:24:03;;;;;;;6.32;1.42;;;;;;;6.75;68.68;101363.63;5012421;28;20045;-59
2021/04/11 11:26:43;;;;;;;2.30;1.00;;;;;;;6.88;67.32;101356.13;5011289;28;20599;-59
2021/04/11 11:29:51;;;;;;;4.40;1.17;;;;;;;6.97;66.89;101364.50;5011112;28;20092;-59
2021/04/11 11:32:35;;;;;;;5.10;1.05;;;;;;;7.12;65.27;101348.19;5011536;28;20392;-57
2021/04/11 11:35:07;;;;;;;2.53;1.20;;;;;;;7.27;65.11;101347.50;5011324;28;20369;-56
2021/04/11 11:38:09;;;;;;;3.75;1.08;;;;;;;7.61;63.96;101346.03;5012256;28;20432;-59
2021/04/11 11:41:24;;;;;;;2.22;0.98;;;;;;;7.77;60.06;101347.94;5012067;28;20077;-57
2021/04/11 11:43:50;;;;;;;3.67;0.88;;;;;;;7.72;58.71;101342.94;4959120;28;20129;-57
2021/04/11 11:46:35;;;;;;;3.97;0.88;;;;;;;7.74;58.34;101353.34;5012323;28;20402;-57
2021/04/11 11:49:20;;;;;;;5.85;1.00;;;;;;;7.70;58.71;101363.13;5010533;28;20053;-56
2021/04/11 11:51:55;;;;;;;1.98;1.38;;;;;;;7.79;58.96;101351.38;5026989;28;20050;-57
2021/04/11 11:54:35;;;;;;;1.20;0.80;;;;;;;7.85;58.49;101361.53;5011911;28;20104;-56
2021/04/11 11:57:05;;;;;;;2.22;0.88;;;;;;;7.89;58.25;101370.97;5012007;28;20501;-55
2021/04/11 11:59:39;;;;;;;3.50;1.00;;;;;;;7.68;58.52;101374.56;5012009;28;20038;-59
2021/04/11 12:02:13;;;;;;;5.22;1.35;;;;;;;7.65;60.66;101377.31;4994501;28;20145;-59
2021/04/11 12:04:45;;;;;;;3.22;0.80;;;;;;;7.41;59.53;101380.09;5010465;28;20112;-57
2021/04/11 12:07:22;;;;;;;5.32;1.08;;;;;;;7.37;58.23;101389.81;5011769;28;20061;-56
2021/04/11 12:10:02;;;;;;;7.95;1.30;;;;;;;7.32;60.58;101386.59;5010944;28;20045;-59
2021/04/11 12:12:32;;;;;;;9.10;1.25;;;;;;;7.43;60.44;101392.19;4997271;28;20057;-59
2021/04/11 12:15:03;;;;;;;3.92;1.02;;;;;;;7.59;62.39;101396.75;5014506;28;20117;-56
2021/04/11 12:17:42;;;;;;;6.95;1.35;;;;;;;7.63;61.33;101403.56;5015524;28;20050;-57
2021/04/11 12:20:13;;;;;;;6.00;1.00;;;;;;;7.77;60.13;101400.31;4998142;28;20045;-59
2021/04/11 12:22:53;;;;;;;6.38;1.38;;;;;;;8.07;59.36;101392.88;5031017;28;20384;-59
2021/04/11 12:25:21;;;;;;;3.97;1.10;;;;;;;8.09;57.33;101391.00;5015683;28;20105;-57